메인 페이지
METAR-TAF:

METAR-TAF

공항 :

코로르, 바벨다오브 섬, 팔라우

팔라우 국제공항

위도: 07-22N, 경도: 134-32E, 고도: 54m

현재 날씨관측

예보는 9분 전, 15:50시(UTC)에 발표되었습니다.
10kt
온도 27°C
습도 79%
기압 1010 hPa
시정: 24.1km
고도 1600ft 상공 구름 조금
고도 12000ft 상공 구름 보통
고도 30000ft 상공 구름 많음

METAR: PTRO 191550Z 09010KT 15SM FEW016 SCT120 BKN300 27/23 A2983

시각: 00:59 (15:59 UTC)

예보

예보는 4 시간 19분 전, 11:40시(UTC)에 발표되었습니다.
예보 대상 시간: 19일 12시부터 20일 12시까지 (UTC)
동북동8kt
시정: 10km
고도 1800ft 상공 구름 조금
고도 12000ft 상공 구름 보통
19일 2300시부터 (UTC)
동북동10kt, 순간 최대 풍속 16kt
시정: 10km
고도 1800ft 상공 구름 조금
고도 5000ft 상공 구름 보통

TAF: PTRO 191140Z 1912/2012 07008KT P6SM FEW018 SCT120 FM192300 06010G16KT P6SM FEW018 SCT050

4,000개 이상의 공항 관측 자료 및 예보 (METAR 및 TAF 보고).

지도상에서 검색 가능한 기상관측소가 노란 점과 빨간 점으로 표시되어 있습니다.

기상관측소 명을 보려면 표시 위로 마우스를 이동하세요.

날씨 관측과 예보를 보려면 클릭하세요.

지도 변경 : 확대하려면 엑스 표시가 있는 녹색 버튼, 축소하려면 빼기 표시가 있는 녹색 버튼, 다음 페이지의 지도를 보려면 녹색 화살표를 클릭하세요.


METAR-TAF: